createdAt,value
2018-02-23T00:02:31.260Z,79.69
2018-02-23T00:05:06.268Z,79.99
2018-02-23T00:07:47.242Z,80.21
2018-02-23T00:10:22.174Z,80.64
2018-02-23T00:12:57.748Z,80.68
2018-02-23T00:15:32.111Z,81.01
2018-02-23T00:18:06.812Z,81.42
2018-02-23T00:20:41.831Z,81.38
2018-02-23T00:23:16.967Z,81.31
2018-02-23T00:25:51.998Z,81.05
2018-02-23T00:28:26.342Z,81.07
2018-02-23T00:31:01.871Z,81.25
2018-02-23T00:33:36.988Z,81.25
2018-02-23T00:36:12.299Z,80.94
2018-02-23T00:38:47.355Z,80.96
2018-02-23T00:41:22.242Z,81.00
2018-02-23T00:43:57.435Z,81.04
2018-02-23T00:46:32.912Z,81.13
2018-02-23T00:49:08.288Z,81.27
2018-02-23T00:51:43.303Z,81.44
2018-02-23T00:54:18.295Z,81.37
2018-02-23T00:56:53.367Z,81.09
2018-02-23T00:59:28.299Z,80.93
2018-02-23T01:02:03.541Z,80.91
2018-02-23T01:04:39.068Z,80.93
2018-02-23T01:07:14.227Z,80.97
2018-02-23T01:09:49.154Z,80.70
2018-02-23T01:12:23.504Z,80.62
2018-02-23T01:14:58.152Z,80.65
2018-02-23T01:17:33.132Z,80.63
2018-02-23T01:20:08.404Z,80.78
2018-02-23T01:22:42.844Z,80.70
2018-02-23T01:25:17.555Z,80.87
2018-02-23T01:27:52.591Z,81.01
2018-02-23T01:30:28.191Z,80.98
2018-02-23T01:33:02.626Z,80.81
2018-02-23T01:35:38.027Z,80.79
2018-02-23T01:38:12.559Z,81.03
2018-02-23T01:40:47.131Z,81.10
2018-02-23T01:43:22.135Z,81.25
2018-02-23T01:45:56.587Z,81.56
2018-02-23T01:48:31.547Z,81.72
2018-02-23T01:51:06.499Z,81.95
2018-02-23T01:53:41.132Z,81.94
2018-02-23T01:56:16.218Z,81.96
2018-02-23T01:58:51.195Z,82.32
2018-02-23T02:01:26.225Z,82.30
2018-02-23T02:04:01.015Z,82.35
2018-02-23T02:06:36.027Z,82.38
2018-02-23T02:09:11.232Z,82.37
2018-02-23T02:11:46.269Z,82.41
2018-02-23T02:14:20.683Z,82.68
2018-02-23T02:16:55.527Z,82.71
2018-02-23T02:19:30.743Z,82.84
2018-02-23T02:22:06.515Z,82.99
2018-02-23T02:24:41.282Z,83.08
2018-02-23T02:27:16.099Z,82.92
2018-02-23T02:29:50.660Z,82.60
2018-02-23T02:32:25.606Z,82.65
2018-02-23T02:35:00.347Z,82.49
2018-02-23T02:37:35.429Z,82.50
2018-02-23T02:40:10.791Z,82.64
2018-02-23T02:42:45.349Z,83.05
2018-02-23T02:45:20.188Z,83.56
2018-02-23T02:47:55.287Z,83.53
2018-02-23T02:50:30.585Z,83.64
2018-02-23T02:53:06.572Z,83.65
2018-02-23T02:55:41.374Z,83.87
2018-02-23T02:58:16.321Z,84.18
2018-02-23T03:00:51.496Z,84.27
2018-02-23T03:03:26.218Z,84.77
2018-02-23T03:06:01.264Z,85.29
2018-02-23T03:08:36.148Z,85.81
2018-02-23T03:11:10.863Z,85.96
2018-02-23T03:13:45.242Z,86.08
2018-02-23T03:16:20.660Z,86.30
2018-02-23T03:18:56.353Z,86.68
2018-02-23T03:21:31.724Z,86.75
2018-02-23T03:24:06.831Z,86.60
2018-02-23T03:26:42.406Z,86.26
2018-02-23T03:29:17.603Z,86.14
2018-02-23T03:31:52.716Z,86.19
2018-02-23T03:34:27.436Z,85.94
2018-02-23T03:37:02.720Z,85.83
2018-02-23T03:39:37.778Z,85.43
2018-02-23T03:42:13.267Z,85.47
2018-02-23T03:44:48.580Z,85.68
2018-02-23T03:47:23.652Z,85.91
2018-02-23T03:50:01.874Z,85.81
2018-02-23T03:52:37.430Z,86.24
2018-02-23T03:55:12.691Z,86.80
2018-02-23T03:57:47.317Z,86.78
2018-02-23T04:00:22.616Z,87.02
2018-02-23T04:02:57.684Z,87.07
2018-02-23T04:05:32.463Z,86.71
2018-02-23T04:08:07.748Z,86.36
2018-02-23T04:10:42.378Z,86.10
2018-02-23T04:13:17.330Z,85.74
2018-02-23T04:15:52.556Z,85.73
2018-02-23T04:18:27.829Z,85.46
2018-02-23T04:21:02.548Z,85.51
2018-02-23T04:23:37.422Z,85.42
2018-02-23T04:26:12.372Z,85.49
2018-02-23T04:28:47.491Z,85.71
2018-02-23T04:31:22.547Z,85.42
2018-02-23T04:33:57.459Z,85.04
2018-02-23T04:36:32.719Z,85.16
2018-02-23T04:39:07.904Z,85.24
2018-02-23T04:41:43.487Z,85.30
2018-02-23T04:44:18.903Z,85.11
2018-02-23T04:46:54.391Z,84.55
2018-02-23T04:49:29.480Z,84.25
2018-02-23T04:52:04.579Z,84.40
2018-02-23T04:54:39.643Z,84.62
2018-02-23T04:57:14.119Z,84.67
2018-02-23T04:59:48.780Z,84.82
2018-02-23T05:02:24.012Z,84.84
2018-02-23T05:04:59.176Z,84.81
2018-02-23T05:07:34.520Z,84.71
2018-02-23T05:10:08.598Z,84.91
2018-02-23T05:12:42.943Z,85.10
2018-02-23T05:15:18.179Z,85.22
2018-02-23T05:17:53.545Z,85.08
2018-02-23T05:20:28.685Z,85.52
2018-02-23T05:23:03.801Z,85.84
2018-02-23T05:25:39.090Z,85.64
2018-02-23T05:28:14.700Z,85.57
2018-02-23T05:30:49.912Z,85.73
2018-02-23T05:33:24.868Z,85.85
2018-02-23T05:35:59.776Z,85.65
2018-02-23T05:38:34.807Z,85.55
2018-02-23T05:41:10.053Z,85.51
2018-02-23T05:43:45.627Z,85.50
2018-02-23T05:46:21.040Z,85.24
2018-02-23T05:48:56.075Z,85.05
2018-02-23T05:51:31.236Z,84.87
2018-02-23T05:54:07.088Z,84.47
2018-02-23T05:56:41.744Z,84.42
2018-02-23T05:59:16.376Z,84.46
2018-02-23T06:01:50.878Z,84.17
2018-02-23T06:04:25.663Z,83.94
2018-02-23T06:07:00.840Z,83.97
2018-02-23T06:09:35.319Z,84.14
2018-02-23T06:12:10.802Z,84.19
2018-02-23T06:14:45.784Z,84.31
2018-02-23T06:17:26.568Z,84.30
2018-02-23T06:20:06.315Z,83.99
2018-02-23T06:22:41.652Z,83.73
2018-02-23T06:25:17.174Z,83.67
2018-02-23T06:27:52.348Z,83.61
2018-02-23T06:30:27.471Z,83.73
2018-02-23T06:33:02.224Z,83.67
2018-02-23T06:35:37.254Z,83.61
2018-02-23T06:38:12.304Z,83.83
2018-02-23T06:40:47.152Z,83.78
2018-02-23T06:43:21.983Z,83.88
2018-02-23T06:45:57.444Z,83.94
2018-02-23T06:48:32.847Z,84.07
2018-02-23T06:51:08.299Z,84.77
2018-02-23T06:53:43.256Z,85.67
2018-02-23T06:56:19.124Z,86.15
2018-02-23T06:58:53.995Z,86.38
2018-02-23T07:01:29.043Z,85.36
2018-02-23T07:04:03.971Z,85.28
2018-02-23T07:06:38.483Z,85.66
2018-02-23T07:09:13.820Z,85.60
2018-02-23T07:11:49.088Z,86.72
2018-02-23T07:14:23.977Z,85.74
2018-02-23T07:16:58.903Z,85.07
2018-02-23T07:19:34.085Z,84.42
2018-02-23T07:22:08.936Z,83.59
2018-02-23T07:24:43.331Z,83.98
2018-02-23T07:27:18.291Z,83.05
2018-02-23T07:29:53.261Z,82.64
2018-02-23T07:32:27.756Z,82.66
2018-02-23T07:35:02.333Z,81.84
2018-02-23T07:37:37.314Z,81.50
2018-02-23T07:40:12.278Z,82.09
2018-02-23T07:42:47.324Z,82.18
2018-02-23T07:45:21.927Z,82.89
2018-02-23T07:47:56.784Z,82.79
2018-02-23T07:50:31.760Z,83.70
2018-02-23T07:53:07.456Z,83.61
2018-02-23T07:55:42.219Z,83.74
2018-02-23T07:58:16.874Z,83.70
2018-02-23T08:00:52.152Z,83.65
2018-02-23T08:03:27.443Z,83.95
2018-02-23T08:06:01.884Z,83.76
2018-02-23T08:08:37.127Z,83.97
2018-02-23T08:11:11.611Z,84.05
2018-02-23T08:13:46.215Z,83.24
2018-02-23T08:16:21.495Z,83.59
2018-02-23T08:18:57.031Z,83.15
2018-02-23T08:21:31.947Z,83.38
2018-02-23T08:24:07.515Z,82.88
2018-02-23T08:26:42.348Z,82.99
2018-02-23T08:29:17.079Z,83.03
2018-02-23T08:31:52.189Z,83.52
2018-02-23T08:34:27.459Z,83.44
2018-02-23T08:37:02.135Z,81.75
2018-02-23T08:39:37.303Z,81.96
2018-02-23T08:42:11.655Z,81.79
2018-02-23T08:44:46.696Z,81.22
2018-02-23T08:47:21.256Z,80.71
2018-02-23T08:49:55.591Z,78.28
2018-02-23T08:52:30.175Z,77.54
2018-02-23T08:55:05.465Z,76.80
2018-02-23T08:57:40.252Z,76.17
2018-02-23T09:00:19.451Z,75.93
2018-02-23T09:02:54.263Z,74.14
2018-02-23T09:05:29.415Z,74.78
2018-02-23T09:08:04.351Z,75.29
2018-02-23T09:10:39.467Z,75.63
2018-02-23T09:13:15.396Z,74.18
2018-02-23T09:15:50.287Z,74.08
2018-02-23T09:18:25.237Z,73.48
2018-02-23T09:21:00.367Z,71.86
2018-02-23T09:23:35.523Z,70.79
2018-02-23T09:26:10.272Z,69.61
2018-02-23T09:28:45.403Z,69.32
2018-02-23T09:31:20.586Z,68.85
2018-02-23T09:34:06.651Z,66.35
2018-02-23T09:36:42.228Z,66.16
2018-02-23T09:39:17.390Z,66.85
2018-02-23T09:41:52.518Z,67.17
2018-02-23T09:44:27.659Z,65.18
2018-02-23T09:47:02.264Z,64.62
2018-02-23T09:49:37.243Z,64.40
2018-02-23T09:52:12.267Z,65.26
2018-02-23T09:54:47.407Z,66.16
2018-02-23T09:57:22.547Z,65.84
2018-02-23T09:59:56.881Z,65.69
2018-02-23T10:02:31.447Z,64.29
2018-02-23T10:05:06.124Z,64.06
2018-02-23T10:07:41.296Z,62.20
2018-02-23T10:10:16.730Z,62.84
2018-02-23T10:12:51.912Z,58.24
2018-02-23T10:15:27.331Z,58.17
2018-02-23T10:18:02.291Z,58.37
2018-02-23T10:20:36.782Z,60.16
2018-02-23T10:23:12.248Z,57.61
2018-02-23T10:25:47.311Z,54.91
2018-02-23T10:28:22.659Z,55.74
2018-02-23T10:30:57.672Z,56.30
2018-02-23T10:33:32.871Z,55.53
2018-02-23T10:36:08.172Z,55.33
2018-02-23T10:38:43.124Z,55.37
2018-02-23T10:41:18.179Z,55.54
2018-02-23T10:43:52.367Z,53.95
2018-02-23T10:46:27.163Z,54.54
2018-02-23T10:49:02.327Z,52.83
2018-02-23T10:51:36.784Z,52.48
2018-02-23T10:54:11.433Z,51.93
2018-02-23T10:56:45.779Z,50.95
2018-02-23T10:59:20.739Z,49.89
2018-02-23T11:01:56.111Z,51.60
2018-02-23T11:04:31.188Z,51.74
2018-02-23T11:07:07.492Z,51.24
2018-02-23T11:09:42.480Z,52.44
2018-02-23T11:12:17.293Z,52.77
2018-02-23T11:14:52.517Z,53.72
2018-02-23T11:17:27.520Z,53.54
2018-02-23T11:20:02.612Z,53.17
2018-02-23T11:22:37.483Z,52.57
2018-02-23T11:25:11.847Z,52.58
2018-02-23T11:27:46.948Z,52.85
2018-02-23T11:30:21.927Z,52.41
2018-02-23T11:32:56.592Z,52.50
2018-02-23T11:35:32.551Z,53.63
2018-02-23T11:38:07.950Z,52.89
2018-02-23T11:40:42.929Z,54.31
2018-02-23T11:43:18.216Z,53.33
2018-02-23T11:45:53.060Z,51.96
2018-02-23T11:48:27.745Z,49.82
2018-02-23T11:51:02.907Z,48.87
2018-02-23T11:53:38.507Z,47.75
2018-02-23T11:56:13.431Z,48.17
2018-02-23T11:58:48.582Z,48.19
2018-02-23T12:01:23.585Z,47.98
2018-02-23T12:03:58.675Z,49.14
2018-02-23T12:06:33.660Z,48.42
2018-02-23T12:09:08.593Z,47.56
2018-02-23T12:11:43.591Z,47.80
2018-02-23T12:14:18.659Z,48.81
2018-02-23T12:16:53.607Z,48.92
2018-02-23T12:19:27.961Z,49.63
2018-02-23T12:22:02.688Z,51.20
2018-02-23T12:24:37.931Z,51.03
2018-02-23T12:27:12.858Z,50.47
2018-02-23T12:29:47.652Z,50.83
2018-02-23T12:32:22.863Z,49.63
2018-02-23T12:34:57.819Z,50.09
2018-02-23T12:37:32.652Z,49.67
2018-02-23T12:40:08.079Z,50.43
2018-02-23T12:42:42.828Z,48.47
2018-02-23T12:45:18.143Z,49.11
2018-02-23T12:47:53.475Z,51.30
2018-02-23T12:50:28.656Z,50.60
2018-02-23T12:53:03.919Z,50.77
2018-02-23T12:55:38.977Z,51.10
2018-02-23T12:58:14.645Z,51.58
2018-02-23T13:00:49.688Z,51.60
2018-02-23T13:03:24.854Z,52.90
2018-02-23T13:05:59.191Z,53.77
2018-02-23T13:08:33.641Z,54.78
2018-02-23T13:11:08.092Z,52.09
2018-02-23T13:13:42.691Z,51.82
2018-02-23T13:16:29.718Z,50.31
2018-02-23T13:19:04.131Z,51.84
2018-02-23T13:21:38.751Z,52.36
2018-02-23T13:24:13.767Z,53.44
2018-02-23T13:26:47.862Z,53.99
2018-02-23T13:29:23.053Z,54.14
2018-02-23T13:31:58.583Z,53.07
2018-02-23T13:34:32.789Z,53.32
2018-02-23T13:37:08.140Z,51.45
2018-02-23T13:39:43.039Z,51.31
2018-02-23T13:42:17.858Z,51.25
2018-02-23T13:44:52.935Z,49.88
2018-02-23T13:47:27.891Z,49.63
2018-02-23T13:50:02.774Z,48.65
2018-02-23T13:52:37.745Z,48.78
2018-02-23T13:55:13.020Z,50.47
2018-02-23T13:57:48.032Z,51.66
2018-02-23T14:00:23.451Z,51.94
2018-02-23T14:02:58.635Z,51.56
2018-02-23T14:05:36.130Z,51.73
2018-02-23T14:08:11.708Z,52.23
2018-02-23T14:10:46.168Z,50.63
2018-02-23T14:13:21.719Z,49.23
2018-02-23T14:15:56.851Z,49.42
2018-02-23T14:18:32.164Z,50.51
2018-02-23T14:21:08.291Z,51.88
2018-02-23T14:23:43.704Z,50.56
2018-02-23T14:26:19.093Z,49.67
2018-02-23T14:28:54.762Z,49.87
2018-02-23T14:31:29.420Z,50.62
2018-02-23T14:34:04.873Z,50.89
2018-02-23T14:36:39.908Z,51.42
2018-02-23T14:39:15.055Z,51.49
2018-02-23T14:41:49.400Z,51.41
2018-02-23T14:44:24.275Z,52.42
2018-02-23T14:46:58.902Z,53.88
2018-02-23T14:49:33.912Z,53.81
2018-02-23T14:52:08.903Z,53.01
2018-02-23T14:54:43.239Z,53.48
2018-02-23T14:57:18.375Z,54.32
2018-02-23T14:59:53.381Z,54.28
2018-02-23T15:02:28.435Z,53.22
2018-02-23T15:05:03.995Z,53.32
2018-02-23T15:07:38.903Z,53.73
2018-02-23T15:10:14.231Z,54.36
2018-02-23T15:12:49.087Z,54.27
2018-02-23T15:15:23.919Z,55.18
2018-02-23T15:17:59.254Z,54.88
2018-02-23T15:20:33.699Z,54.62
2018-02-23T15:23:09.145Z,55.84
2018-02-23T15:25:43.296Z,55.61
2018-02-23T15:28:18.014Z,56.61
2018-02-23T15:31:03.580Z,56.65
2018-02-23T15:33:39.139Z,56.60
2018-02-23T15:36:13.423Z,56.61
2018-02-23T15:38:49.033Z,56.94
2018-02-23T15:41:24.558Z,56.87
2018-02-23T15:43:59.076Z,58.23
2018-02-23T15:46:33.723Z,58.37
2018-02-23T15:49:15.351Z,57.87
2018-02-23T15:51:53.327Z,58.04
2018-02-23T15:54:28.346Z,58.00
2018-02-23T15:57:03.476Z,58.70
2018-02-23T15:59:37.976Z,59.13
2018-02-23T16:02:13.195Z,59.19
2018-02-23T16:04:48.235Z,58.39
2018-02-23T16:07:22.484Z,57.99
2018-02-23T16:09:58.312Z,58.88
2018-02-23T16:12:33.144Z,58.39
2018-02-23T16:15:08.539Z,60.39
2018-02-23T16:17:44.187Z,58.82
2018-02-23T16:20:19.653Z,59.93
2018-02-23T16:22:54.375Z,59.87
2018-02-23T16:25:29.447Z,61.40
2018-02-23T16:28:04.420Z,60.44
2018-02-23T16:30:38.608Z,60.67
2018-02-23T16:33:13.792Z,59.74
2018-02-23T16:35:49.240Z,60.37
2018-02-23T16:38:24.219Z,61.90
2018-02-23T16:40:58.555Z,62.22
2018-02-23T16:43:33.665Z,61.08
2018-02-23T16:46:08.707Z,61.97
2018-02-23T16:48:43.345Z,61.05
2018-02-23T16:51:18.567Z,60.32
2018-02-23T16:53:53.507Z,60.57
2018-02-23T16:56:28.288Z,60.54
2018-02-23T16:59:03.639Z,63.65
2018-02-23T17:01:38.515Z,60.38
2018-02-23T17:04:13.254Z,60.60
2018-02-23T17:06:48.315Z,60.57
2018-02-23T17:09:23.295Z,60.87
2018-02-23T17:11:58.295Z,61.09
2018-02-23T17:14:33.351Z,60.90
2018-02-23T17:17:08.676Z,61.03
2018-02-23T17:19:43.563Z,61.39
2018-02-23T17:22:18.658Z,61.49
2018-02-23T17:24:53.332Z,61.46
2018-02-23T17:27:27.867Z,61.72
2018-02-23T17:30:03.003Z,61.65
2018-02-23T17:32:37.682Z,62.20
2018-02-23T17:35:12.248Z,62.22
2018-02-23T17:37:47.275Z,62.32
2018-02-23T17:40:22.663Z,62.45
2018-02-23T17:42:57.755Z,62.21
2018-02-23T17:45:33.205Z,62.01
2018-02-23T17:48:08.615Z,62.93
2018-02-23T17:50:43.383Z,62.89
2018-02-23T17:53:18.946Z,62.84
2018-02-23T17:55:53.505Z,62.82
2018-02-23T17:58:28.378Z,63.13
2018-02-23T18:01:02.955Z,63.27
2018-02-23T18:03:37.702Z,63.05
2018-02-23T18:06:13.330Z,62.85
2018-02-23T18:08:47.787Z,62.76
2018-02-23T18:11:23.475Z,62.71
2018-02-23T18:13:58.624Z,63.01
2018-02-23T18:16:33.259Z,63.22
2018-02-23T18:19:08.784Z,63.59
2018-02-23T18:21:43.734Z,63.75
2018-02-23T18:24:18.516Z,63.71
2018-02-23T18:26:53.075Z,64.04
2018-02-23T18:29:28.592Z,63.75
2018-02-23T18:32:03.499Z,64.59
2018-02-23T18:34:38.438Z,64.29
2018-02-23T18:37:13.655Z,63.71
2018-02-23T18:39:48.408Z,63.47
2018-02-23T18:42:22.889Z,63.05
2018-02-23T18:44:58.579Z,63.44
2018-02-23T18:47:34.317Z,63.43
2018-02-23T18:50:09.083Z,63.20
2018-02-23T18:52:44.120Z,63.19
2018-02-23T18:55:19.323Z,64.08
2018-02-23T18:57:54.595Z,64.46
2018-02-23T19:00:29.715Z,64.16
2018-02-23T19:03:04.724Z,63.97
2018-02-23T19:05:39.277Z,64.08
2018-02-23T19:08:15.955Z,63.64
2018-02-23T19:10:51.019Z,63.58
2018-02-23T19:13:25.765Z,63.34
2018-02-23T19:16:00.361Z,62.91
2018-02-23T19:18:35.555Z,63.38
2018-02-23T19:21:10.009Z,63.28
2018-02-23T19:23:45.396Z,63.15
2018-02-23T19:26:19.938Z,63.46
2018-02-23T19:28:54.613Z,63.09
2018-02-23T19:31:29.700Z,63.10
2018-02-23T19:34:04.698Z,62.71
2018-02-23T19:36:40.038Z,62.21
2018-02-23T19:39:15.221Z,62.44
2018-02-23T19:41:49.822Z,62.18
2018-02-23T19:44:24.751Z,61.92
2018-02-23T19:46:59.744Z,62.50
2018-02-23T19:49:34.673Z,62.91
2018-02-23T19:52:09.911Z,62.93
2018-02-23T19:54:44.895Z,62.93
2018-02-23T19:57:19.616Z,62.87
2018-02-23T19:59:54.708Z,63.09
2018-02-23T20:02:29.703Z,62.86
2018-02-23T20:05:04.377Z,62.97
2018-02-23T20:07:39.815Z,62.60
2018-02-23T20:10:15.152Z,62.75
2018-02-23T20:12:49.712Z,63.10
2018-02-23T20:15:25.249Z,63.25
2018-02-23T20:17:59.915Z,63.56
2018-02-23T20:20:34.788Z,63.43
2018-02-23T20:23:10.024Z,64.13
2018-02-23T20:25:45.092Z,64.13
2018-02-23T20:28:20.055Z,63.73
2018-02-23T20:30:54.716Z,64.37
2018-02-23T20:33:29.691Z,64.44
2018-02-23T20:36:04.774Z,64.70
2018-02-23T20:38:40.003Z,64.78
2018-02-23T20:41:14.867Z,64.57
2018-02-23T20:43:49.778Z,65.33
2018-02-23T20:46:24.143Z,65.81
2018-02-23T20:48:59.171Z,65.88
2018-02-23T20:51:34.223Z,65.63
2018-02-23T20:54:09.274Z,65.59
2018-02-23T20:56:43.819Z,65.62
2018-02-23T20:59:18.411Z,65.63
2018-02-23T21:01:52.868Z,65.86
2018-02-23T21:04:28.500Z,65.79
2018-02-23T21:07:03.044Z,66.00
2018-02-23T21:09:37.362Z,66.61
2018-02-23T21:12:12.331Z,67.26
2018-02-23T21:14:46.874Z,67.60
2018-02-23T21:17:22.370Z,68.09
2018-02-23T21:19:57.903Z,67.67
2018-02-23T21:22:32.586Z,70.09
2018-02-23T21:25:08.205Z,68.37
2018-02-23T21:27:43.436Z,66.62
2018-02-23T21:30:18.624Z,65.88
2018-02-23T21:32:53.131Z,65.78
2018-02-23T21:35:27.847Z,65.91
2018-02-23T21:38:02.964Z,65.63
2018-02-23T21:40:37.692Z,65.12
2018-02-23T21:43:13.077Z,65.40
2018-02-23T21:45:48.102Z,65.30
2018-02-23T21:48:23.237Z,65.24
2018-02-23T21:50:59.253Z,65.13
2018-02-23T21:53:33.571Z,65.09
2018-02-23T21:56:09.294Z,64.85
2018-02-23T21:58:43.707Z,65.57
2018-02-23T22:01:19.132Z,65.48
2018-02-23T22:03:54.096Z,65.28
2018-02-23T22:06:29.303Z,65.70
2018-02-23T22:09:03.495Z,65.84
2018-02-23T22:11:38.682Z,65.84
2018-02-23T22:14:13.951Z,65.87
2018-02-23T22:16:48.974Z,65.81
2018-02-23T22:19:23.801Z,66.01
2018-02-23T22:21:59.101Z,66.26
2018-02-23T22:24:34.385Z,65.49
2018-02-23T22:27:09.824Z,65.93
2018-02-23T22:29:44.907Z,65.94
2018-02-23T22:32:20.319Z,66.41
2018-02-23T22:34:55.519Z,65.93
2018-02-23T22:37:30.081Z,66.05
2018-02-23T22:40:05.068Z,65.95
2018-02-23T22:42:40.371Z,65.76
2018-02-23T22:45:15.071Z,66.14
2018-02-23T22:47:50.253Z,66.69
2018-02-23T22:50:25.234Z,66.40
2018-02-23T22:53:00.491Z,66.53
2018-02-23T22:55:36.119Z,65.97
2018-02-23T22:58:11.320Z,66.51
2018-02-23T23:00:46.603Z,66.05
2018-02-23T23:03:22.187Z,65.97
2018-02-23T23:05:57.241Z,66.59
2018-02-23T23:08:32.530Z,66.42
2018-02-23T23:11:07.562Z,66.44
2018-02-23T23:13:42.140Z,66.30
2018-02-23T23:16:17.324Z,66.23
2018-02-23T23:18:52.367Z,65.93
2018-02-23T23:21:27.118Z,66.29
2018-02-23T23:24:02.069Z,66.49
2018-02-23T23:26:37.179Z,66.29
2018-02-23T23:29:12.375Z,66.56
2018-02-23T23:31:47.924Z,66.38
2018-02-23T23:34:23.260Z,66.58
2018-02-23T23:36:58.061Z,66.50
2018-02-23T23:39:33.123Z,66.88
2018-02-23T23:42:09.409Z,67.14
2018-02-23T23:44:44.648Z,66.97
2018-02-23T23:47:19.452Z,66.85
2018-02-23T23:49:54.708Z,66.52
2018-02-23T23:52:29.475Z,66.28
2018-02-23T23:55:05.043Z,66.34
2018-02-23T23:57:39.431Z,66.40
